createdAt,value
2018-04-22T00:01:11.962Z,61.40
2018-04-22T00:03:39.502Z,60.80
2018-04-22T00:06:07.076Z,60.90
2018-04-22T00:08:34.637Z,61.20
2018-04-22T00:11:02.145Z,61.70
2018-04-22T00:13:30.442Z,61.50
2018-04-22T00:15:57.950Z,61.50
2018-04-22T00:18:25.457Z,62.70
2018-04-22T00:20:52.993Z,62.10
2018-04-22T00:23:20.507Z,61.90
2018-04-22T00:25:48.786Z,62.00
2018-04-22T00:28:17.105Z,63.00
2018-04-22T00:30:44.615Z,63.10
2018-04-22T00:33:12.185Z,63.20
2018-04-22T00:35:39.737Z,63.00
2018-04-22T00:38:07.265Z,63.50
2018-04-22T00:40:34.781Z,63.30
2018-04-22T00:43:02.330Z,63.20
2018-04-22T00:45:29.847Z,63.10
2018-04-22T00:47:57.405Z,63.10
2018-04-22T00:50:24.958Z,63.10
2018-04-22T00:52:53.242Z,64.30
2018-04-22T00:55:21.548Z,63.00
2018-04-22T00:57:49.109Z,62.90
2018-04-22T01:00:16.624Z,63.70
2018-04-22T01:02:44.130Z,64.10
2018-04-22T01:05:11.681Z,64.90
2018-04-22T01:07:39.957Z,64.60
2018-04-22T01:10:08.242Z,64.20
2018-04-22T01:12:36.549Z,64.90
2018-04-22T01:15:04.058Z,64.80
2018-04-22T01:17:31.573Z,64.70
2018-04-22T01:19:59.888Z,65.40
2018-04-22T01:22:27.398Z,65.40
2018-04-22T01:24:55.677Z,65.60
2018-04-22T01:27:23.978Z,66.10
2018-04-22T01:29:51.499Z,66.10
2018-04-22T01:32:19.022Z,66.40
2018-04-22T01:34:46.593Z,65.90
2018-04-22T01:37:14.140Z,65.60
2018-04-22T01:39:41.647Z,65.30
2018-04-22T01:42:09.173Z,65.80
2018-04-22T01:44:36.690Z,66.30
2018-04-22T01:47:04.970Z,66.10
2018-04-22T01:49:32.499Z,66.00
2018-04-22T01:52:00.021Z,65.60
2018-04-22T01:54:28.293Z,67.10
2018-04-22T01:56:56.597Z,66.90
2018-04-22T01:59:24.112Z,66.80
2018-04-22T02:01:53.133Z,67.80
2018-04-22T02:04:21.433Z,67.80
2018-04-22T02:06:48.964Z,67.70
2018-04-22T02:09:17.272Z,67.60
2018-04-22T02:11:45.571Z,67.90
2018-04-22T02:14:13.094Z,67.90
2018-04-22T02:16:41.412Z,66.70
2018-04-22T02:19:08.942Z,67.00
2018-04-22T02:21:36.449Z,67.20
2018-04-22T02:24:03.967Z,67.60
2018-04-22T02:26:31.513Z,68.30
2018-04-22T02:28:59.021Z,68.40
2018-04-22T02:31:27.298Z,69.00
2018-04-22T02:33:54.856Z,69.00
2018-04-22T02:36:23.269Z,68.10
2018-04-22T02:38:50.787Z,68.00
2018-04-22T02:41:18.317Z,68.00
2018-04-22T02:43:45.825Z,69.20
2018-04-22T02:46:14.145Z,68.90
2018-04-22T02:48:41.685Z,68.90
2018-04-22T02:51:09.985Z,69.50
2018-04-22T02:53:38.262Z,67.90
2018-04-22T02:56:05.811Z,67.90
2018-04-22T02:58:33.327Z,68.70
2018-04-22T03:01:00.837Z,69.60
2018-04-22T03:03:29.138Z,69.10
2018-04-22T03:05:56.645Z,69.10
2018-04-22T03:08:24.154Z,69.10
2018-04-22T03:10:51.704Z,69.70
2018-04-22T03:13:19.242Z,70.40
2018-04-22T03:15:46.777Z,69.60
2018-04-22T03:18:14.305Z,71.10
2018-04-22T03:20:41.885Z,70.70
2018-04-22T03:23:09.409Z,70.70
2018-04-22T03:25:36.964Z,70.50
2018-04-22T03:28:04.574Z,70.20
2018-04-22T03:30:32.098Z,70.30
2018-04-22T03:32:59.643Z,70.20
2018-04-22T03:35:27.279Z,70.20
2018-04-22T03:37:54.864Z,69.90
2018-04-22T03:40:22.420Z,70.30
2018-04-22T03:42:49.942Z,69.80
2018-04-22T03:45:18.217Z,70.20
2018-04-22T03:47:46.532Z,70.50
2018-04-22T03:50:14.092Z,69.90
2018-04-22T03:52:41.625Z,71.00
2018-04-22T03:55:09.261Z,70.50
2018-04-22T03:57:36.772Z,70.60
2018-04-22T04:00:04.289Z,70.40
2018-04-22T04:02:31.841Z,71.20
2018-04-22T04:04:59.493Z,71.10
2018-04-22T04:07:27.058Z,71.30
2018-04-22T04:09:54.615Z,70.50
2018-04-22T04:12:22.125Z,70.60
2018-04-22T04:14:49.745Z,70.60
2018-04-22T04:17:17.315Z,71.40
2018-04-22T04:19:56.889Z,71.30
2018-04-22T04:22:36.924Z,72.10
2018-04-22T04:25:29.149Z,72.00
2018-04-22T04:27:56.701Z,72.00
2018-04-22T04:30:24.231Z,71.60
2018-04-22T04:32:52.513Z,72.00
2018-04-22T04:35:20.815Z,72.60
2018-04-22T04:37:48.373Z,72.50
2018-04-22T04:40:16.063Z,72.40
2018-04-22T04:42:43.613Z,72.10
2018-04-22T04:45:11.183Z,72.00
2018-04-22T04:47:39.027Z,72.50
2018-04-22T04:50:07.444Z,71.60
2018-04-22T04:52:34.959Z,71.60
2018-04-22T04:55:02.478Z,71.00
2018-04-22T04:57:30.015Z,72.40
2018-04-22T04:59:57.561Z,72.20
2018-04-22T05:02:25.869Z,72.20
2018-04-22T05:04:53.435Z,72.10
2018-04-22T05:07:20.953Z,71.90
2018-04-22T05:09:48.481Z,72.10
2018-04-22T05:12:16.017Z,71.50
2018-04-22T05:14:43.545Z,72.00
2018-04-22T05:17:11.062Z,72.00
2018-04-22T05:19:38.590Z,72.00
2018-04-22T05:22:06.892Z,71.70
2018-04-22T05:24:34.420Z,71.60
2018-04-22T05:27:02.005Z,71.80
2018-04-22T05:29:30.293Z,71.10
2018-04-22T05:31:58.565Z,71.50
2018-04-22T05:34:26.870Z,71.70
2018-04-22T05:36:54.398Z,71.70
2018-04-22T05:39:22.004Z,72.10
2018-04-22T05:41:50.692Z,70.30
2018-04-22T05:44:18.948Z,69.60
2018-04-22T05:46:47.256Z,68.20
2018-04-22T05:49:14.797Z,68.00
2018-04-22T05:51:43.072Z,68.20
2018-04-22T05:54:11.345Z,67.80
2018-04-22T05:56:38.876Z,67.70
2018-04-22T05:59:06.394Z,68.20
2018-04-22T06:01:34.745Z,66.30
2018-04-22T06:04:02.298Z,66.10
2018-04-22T06:06:29.818Z,66.10
2018-04-22T06:08:57.349Z,64.30
2018-04-22T06:11:25.646Z,63.60
2018-04-22T06:13:54.104Z,63.10
2018-04-22T06:16:21.628Z,63.10
2018-04-22T06:18:49.190Z,61.60
2018-04-22T06:21:16.708Z,62.30
2018-04-22T06:23:44.310Z,62.00
2018-04-22T06:26:12.692Z,60.80
2018-04-22T06:28:40.200Z,60.70
2018-04-22T06:31:07.721Z,59.40
2018-04-22T06:33:35.310Z,59.30
2018-04-22T06:36:02.823Z,59.20
2018-04-22T06:38:31.104Z,58.10
2018-04-22T06:40:59.421Z,57.40
2018-04-22T06:43:27.466Z,57.40
2018-04-22T06:45:56.790Z,56.80
2018-04-22T06:48:25.831Z,56.80
2018-04-22T06:50:54.209Z,56.10
2018-04-22T06:53:21.805Z,56.20
2018-04-22T06:55:49.371Z,55.20
2018-04-22T06:58:17.102Z,55.20
2018-04-22T07:00:44.637Z,54.80
2018-04-22T07:03:12.353Z,53.50
2018-04-22T07:05:40.657Z,52.50
2018-04-22T07:08:08.955Z,51.70
2018-04-22T07:10:37.252Z,51.20
2018-04-22T07:13:04.785Z,51.10
2018-04-22T07:15:33.109Z,48.70
2018-04-22T07:18:00.665Z,48.70
2018-04-22T07:20:28.184Z,48.30
2018-04-22T07:22:55.702Z,47.80
2018-04-22T07:25:23.233Z,47.30
2018-04-22T07:27:51.517Z,45.40
2018-04-22T07:30:19.797Z,45.20
2018-04-22T07:32:48.123Z,43.90
2018-04-22T07:35:15.653Z,43.80
2018-04-22T07:37:44.734Z,41.40
2018-04-22T07:40:13.085Z,39.90
2018-04-22T07:42:40.969Z,39.80
2018-04-22T07:45:08.566Z,40.00
2018-04-22T07:47:37.629Z,38.60
2018-04-22T07:50:05.152Z,38.50
2018-04-22T07:52:32.672Z,37.70
2018-04-22T07:55:00.197Z,37.30
2018-04-22T07:57:27.720Z,37.40
2018-04-22T07:59:56.094Z,35.10
2018-04-22T08:02:24.406Z,33.40
2018-04-22T08:04:51.938Z,33.30
2018-04-22T08:07:20.209Z,33.30
2018-04-22T08:09:47.745Z,33.20
2018-04-22T08:12:15.253Z,32.20
2018-04-22T08:14:43.570Z,30.50
2018-04-22T08:17:11.122Z,30.40
2018-04-22T08:19:38.641Z,31.40
2018-04-22T08:22:06.163Z,31.60
2018-04-22T08:24:33.702Z,33.00
2018-04-22T08:27:01.229Z,32.00
2018-04-22T08:29:28.745Z,31.70
2018-04-22T08:31:59.438Z,30.50
2018-04-22T08:34:28.751Z,32.00
2018-04-22T08:36:57.047Z,32.20
2018-04-22T08:39:24.577Z,32.10
2018-04-22T08:41:52.090Z,30.00
2018-04-22T08:44:19.601Z,29.90
2018-04-22T08:46:47.185Z,29.60
2018-04-22T08:49:15.473Z,28.60
2018-04-22T08:51:43.749Z,28.40
2018-04-22T08:54:12.059Z,28.60
2018-04-22T08:56:39.579Z,28.30
2018-04-22T08:59:07.861Z,29.40
2018-04-22T09:01:35.421Z,29.40
2018-04-22T09:04:02.935Z,28.60
2018-04-22T09:06:30.442Z,29.30
2018-04-22T09:08:58.050Z,27.30
2018-04-22T09:11:26.326Z,27.10
2018-04-22T09:13:54.605Z,26.50
2018-04-22T09:16:22.900Z,27.10
2018-04-22T09:18:50.428Z,27.00
2018-04-22T09:21:19.461Z,27.00
2018-04-22T09:23:46.985Z,27.00
2018-04-22T09:26:16.010Z,26.10
2018-04-22T09:28:44.373Z,27.40
2018-04-22T09:31:11.900Z,27.40
2018-04-22T09:33:39.426Z,28.00
2018-04-22T09:36:07.704Z,27.40
2018-04-22T09:38:35.990Z,27.00
2018-04-22T09:41:03.557Z,27.00
2018-04-22T09:43:31.150Z,27.60
2018-04-22T09:45:58.875Z,27.20
2018-04-22T09:48:26.516Z,27.00
2018-04-22T09:50:54.025Z,27.40
2018-04-22T09:53:21.602Z,28.40
2018-04-22T09:55:49.093Z,26.80
2018-04-22T09:58:16.601Z,27.20
2018-04-22T10:00:46.900Z,26.90
2018-04-22T10:03:14.417Z,26.80
2018-04-22T10:05:47.572Z,26.90
2018-04-22T10:08:15.852Z,27.60
2018-04-22T10:10:43.583Z,27.00
2018-04-22T10:13:11.138Z,27.50
2018-04-22T10:15:38.659Z,26.00
2018-04-22T10:18:06.946Z,24.80
2018-04-22T10:20:35.294Z,25.50
2018-04-22T10:23:02.817Z,25.40
2018-04-22T10:25:30.334Z,25.90
2018-04-22T10:27:57.863Z,25.00
2018-04-22T10:30:25.381Z,25.00
2018-04-22T10:32:53.657Z,24.30
2018-04-22T10:35:21.966Z,24.50
2018-04-22T10:37:49.539Z,24.40
2018-04-22T10:40:17.045Z,24.80
2018-04-22T10:42:44.585Z,24.60
2018-04-22T10:45:12.100Z,24.00
2018-04-22T10:47:40.382Z,23.70
2018-04-22T10:50:08.872Z,23.40
2018-04-22T10:52:37.150Z,23.90
2018-04-22T10:55:05.440Z,25.20
2018-04-22T10:57:33.741Z,24.60
2018-04-22T11:00:01.246Z,24.50
2018-04-22T11:02:29.545Z,23.00
2018-04-22T11:04:57.189Z,22.90
2018-04-22T11:07:24.702Z,22.80
2018-04-22T11:09:52.246Z,21.90
2018-04-22T11:12:20.538Z,21.80
2018-04-22T11:14:48.843Z,21.80
2018-04-22T11:17:16.433Z,21.80
2018-04-22T11:19:43.996Z,22.70
2018-04-22T11:22:11.502Z,22.20
2018-04-22T11:24:39.015Z,22.00
2018-04-22T11:27:06.576Z,21.80
2018-04-22T11:29:34.105Z,22.20
2018-04-22T11:32:02.378Z,21.00
2018-04-22T11:34:30.687Z,21.60
2018-04-22T11:36:58.208Z,21.10
2018-04-22T11:39:25.713Z,19.80
2018-04-22T11:41:53.254Z,19.90
2018-04-22T11:44:21.543Z,20.70
2018-04-22T11:46:49.821Z,20.90
2018-04-22T11:49:18.109Z,20.10
2018-04-22T11:51:46.508Z,19.80
2018-04-22T11:54:14.023Z,19.80
2018-04-22T11:56:41.559Z,21.10
2018-04-22T11:59:09.069Z,21.20
2018-04-22T12:01:37.328Z,22.10
2018-04-22T12:04:05.886Z,22.40
2018-04-22T12:06:33.413Z,22.40
2018-04-22T12:09:00.929Z,22.80
2018-04-22T12:11:28.467Z,23.70
2018-04-22T12:13:55.972Z,23.30
2018-04-22T12:16:25.062Z,22.70
2018-04-22T12:18:52.745Z,22.70
2018-04-22T12:21:20.257Z,23.90
2018-04-22T12:23:47.769Z,25.20
2018-04-22T12:26:16.072Z,23.70
2018-04-22T12:28:44.337Z,24.80
2018-04-22T12:31:11.847Z,24.80
2018-04-22T12:33:39.381Z,24.70
2018-04-22T12:36:07.658Z,25.80
2018-04-22T12:38:35.943Z,24.70
2018-04-22T12:41:04.245Z,24.20
2018-04-22T12:43:31.762Z,24.10
2018-04-22T12:46:00.041Z,24.70
2018-04-22T12:48:27.658Z,24.70
2018-04-22T12:50:55.166Z,25.20
2018-04-22T12:53:23.389Z,24.90
2018-04-22T12:55:51.797Z,25.00
2018-04-22T12:58:19.345Z,25.00
2018-04-22T13:00:46.865Z,25.00
2018-04-22T13:03:15.161Z,24.10
2018-04-22T13:05:42.671Z,24.10
2018-04-22T13:08:10.177Z,24.50
2018-04-22T13:10:37.745Z,24.40
2018-04-22T13:13:06.762Z,24.80
2018-04-22T13:15:35.060Z,26.70
2018-04-22T13:18:02.620Z,26.60
2018-04-22T13:20:30.120Z,27.10
2018-04-22T13:22:57.621Z,28.30
2018-04-22T13:25:25.933Z,29.00
2018-04-22T13:27:53.432Z,29.10
2018-04-22T13:30:20.974Z,28.40
2018-04-22T13:32:48.513Z,28.20
2018-04-22T13:35:16.781Z,28.70
2018-04-22T13:37:45.057Z,28.50
2018-04-22T13:40:12.642Z,28.40
2018-04-22T13:42:40.924Z,31.50
2018-04-22T13:45:09.192Z,29.70
2018-04-22T13:47:37.483Z,29.90
2018-04-22T13:50:05.764Z,30.00
2018-04-22T13:52:34.051Z,30.60
2018-04-22T13:55:02.432Z,30.70
2018-04-22T13:57:30.744Z,31.40
2018-04-22T13:59:58.357Z,31.50
2018-04-22T14:02:26.706Z,30.00
2018-04-22T14:04:54.250Z,30.50
2018-04-22T14:07:21.763Z,29.90
2018-04-22T14:09:50.796Z,29.90
2018-04-22T14:12:19.077Z,31.80
2018-04-22T14:14:47.349Z,31.60
2018-04-22T14:17:15.653Z,30.00
2018-04-22T14:19:43.154Z,30.00
2018-04-22T14:22:10.675Z,30.40
2018-04-22T14:24:38.197Z,31.20
2018-04-22T14:27:06.497Z,30.80
2018-04-22T14:29:34.777Z,31.80
2018-04-22T14:32:03.084Z,31.40
2018-04-22T14:34:30.597Z,31.30
2018-04-22T14:36:58.120Z,31.20
2018-04-22T14:39:25.655Z,31.80
2018-04-22T14:41:53.964Z,30.20
2018-04-22T14:44:33.137Z,30.10
2018-04-22T14:47:00.645Z,31.00
2018-04-22T14:49:28.157Z,29.50
2018-04-22T14:51:55.691Z,29.60
2018-04-22T14:54:23.208Z,31.50
2018-04-22T14:56:50.859Z,31.10
2018-04-22T14:59:18.387Z,31.80
2018-04-22T15:01:45.938Z,32.40
2018-04-22T15:04:13.489Z,32.40
2018-04-22T15:06:41.789Z,32.00
2018-04-22T15:09:09.733Z,32.60
2018-04-22T15:11:38.005Z,29.60
2018-04-22T15:14:05.529Z,29.50
2018-04-22T15:16:33.040Z,29.30
2018-04-22T15:19:01.333Z,29.80
2018-04-22T15:21:29.702Z,29.00
2018-04-22T15:23:58.045Z,29.40
2018-04-22T15:26:25.596Z,29.40
2018-04-22T15:28:53.132Z,29.20
2018-04-22T15:31:20.649Z,29.70
2018-04-22T15:33:48.161Z,29.90
2018-04-22T15:36:15.723Z,31.10
2018-04-22T15:38:43.990Z,30.00
2018-04-22T15:41:12.309Z,31.30
2018-04-22T15:43:39.846Z,30.70
2018-04-22T15:46:08.127Z,30.60
2018-04-22T15:48:35.713Z,30.50
2018-04-22T15:51:03.249Z,31.90
2018-04-22T15:53:31.544Z,31.50
2018-04-22T15:55:59.829Z,31.30
2018-04-22T15:58:28.535Z,31.20
2018-04-22T16:00:57.043Z,31.50
2018-04-22T16:03:25.365Z,30.50
2018-04-22T16:05:53.713Z,32.50
2018-04-22T16:08:21.258Z,32.50
2018-04-22T16:10:49.124Z,31.50
2018-04-22T16:13:16.658Z,32.40
2018-04-22T16:15:44.947Z,32.10
2018-04-22T16:18:13.242Z,34.90
2018-04-22T16:20:41.190Z,34.30
2018-04-22T16:23:09.524Z,35.50
2018-04-22T16:25:37.047Z,35.30
2018-04-22T16:28:04.634Z,32.60
2018-04-22T16:30:32.220Z,32.70
2018-04-22T16:32:59.742Z,32.90
2018-04-22T16:35:27.363Z,32.90
2018-04-22T16:37:55.013Z,34.60
2018-04-22T16:40:23.297Z,32.20
2018-04-22T16:42:50.841Z,32.20
2018-04-22T16:45:18.781Z,34.70
2018-04-22T16:47:47.077Z,32.90
2018-04-22T16:50:15.368Z,33.00
2018-04-22T16:52:42.893Z,32.90
2018-04-22T16:55:11.201Z,32.90
2018-04-22T16:57:39.601Z,33.80
2018-04-22T17:00:08.032Z,34.50
2018-04-22T17:02:35.582Z,34.40
2018-04-22T17:05:03.137Z,33.20
2018-04-22T17:07:30.654Z,33.80
2018-04-22T17:09:58.974Z,34.30
2018-04-22T17:12:26.529Z,34.20
2018-04-22T17:14:54.822Z,34.30
2018-04-22T17:17:22.345Z,34.30
2018-04-22T17:19:50.651Z,35.40
2018-04-22T17:22:18.174Z,35.30
2018-04-22T17:24:45.764Z,35.10
2018-04-22T17:27:14.145Z,36.30
2018-04-22T17:29:42.421Z,35.60
2018-04-22T17:32:10.711Z,36.00
2018-04-22T17:34:39.010Z,35.70
2018-04-22T17:37:06.564Z,35.60
2018-04-22T17:39:34.086Z,35.60
2018-04-22T17:42:01.717Z,37.10
2018-04-22T17:44:29.257Z,34.90
2018-04-22T17:46:56.773Z,35.00
2018-04-22T17:49:24.320Z,35.70
2018-04-22T17:51:51.925Z,34.80
2018-04-22T17:54:20.209Z,35.80
2018-04-22T17:56:47.750Z,35.70
2018-04-22T17:59:15.338Z,35.50
2018-04-22T18:01:43.882Z,35.00
2018-04-22T18:04:11.429Z,35.40
2018-04-22T18:06:38.957Z,37.30
2018-04-22T18:09:07.232Z,37.90
2018-04-22T18:11:35.534Z,39.30
2018-04-22T18:14:03.813Z,39.90
2018-04-22T18:16:32.085Z,41.20
2018-04-22T18:19:00.394Z,41.00
2018-04-22T18:21:28.061Z,41.00
2018-04-22T18:23:55.607Z,40.30
2018-04-22T18:26:23.988Z,41.80
2018-04-22T18:28:52.290Z,41.60
2018-04-22T18:31:19.858Z,41.50
2018-04-22T18:33:47.397Z,42.30
2018-04-22T18:36:15.671Z,42.90
2018-04-22T18:38:43.219Z,42.80
2018-04-22T18:41:10.749Z,43.80
2018-04-22T18:43:38.304Z,43.90
2018-04-22T18:46:05.817Z,43.50
2018-04-22T18:48:33.365Z,43.80
2018-04-22T18:51:00.915Z,43.70
2018-04-22T18:53:28.435Z,44.10
2018-04-22T18:55:55.990Z,44.20
2018-04-22T18:58:24.332Z,44.30
2018-04-22T19:00:51.845Z,44.20
2018-04-22T19:03:19.519Z,45.20
2018-04-22T19:05:47.045Z,44.60
2018-04-22T19:08:16.385Z,46.00
2018-04-22T19:10:45.668Z,46.00
2018-04-22T19:13:13.181Z,46.80
2018-04-22T19:15:40.719Z,47.10
2018-04-22T19:18:08.256Z,47.90
2018-04-22T19:20:36.570Z,48.80
2018-04-22T19:23:04.106Z,48.70
2018-04-22T19:25:32.421Z,49.90
2018-04-22T19:27:59.971Z,49.90
2018-04-22T19:30:28.412Z,48.10
2018-04-22T19:32:56.782Z,49.00
2018-04-22T19:35:24.699Z,48.30
2018-04-22T19:37:53.008Z,48.00
2018-04-22T19:40:20.564Z,47.80
2018-04-22T19:42:48.864Z,49.60
2018-04-22T19:45:16.393Z,49.60
2018-04-22T19:47:43.983Z,49.80
2018-04-22T19:50:11.535Z,50.40
2018-04-22T19:52:39.050Z,50.80
2018-04-22T19:55:06.573Z,50.70
2018-04-22T19:57:34.135Z,50.00
2018-04-22T20:00:01.647Z,47.50
2018-04-22T20:02:30.677Z,45.40
2018-04-22T20:07:39.010Z,45.00
2018-04-22T20:10:07.340Z,45.20
2018-04-22T20:12:34.853Z,45.20
2018-04-22T20:15:03.168Z,45.80
2018-04-22T20:17:30.677Z,45.70
2018-04-22T20:19:58.190Z,46.40
2018-04-22T20:22:25.720Z,45.90
2018-04-22T20:24:54.001Z,45.90
2018-04-22T20:27:22.294Z,46.50
2018-04-22T20:29:50.586Z,46.80
2018-04-22T20:32:18.109Z,46.80
2018-04-22T20:34:45.627Z,46.60
2018-04-22T20:37:13.256Z,46.70
2018-04-22T20:39:40.816Z,47.80
2018-04-22T20:42:09.101Z,48.30
2018-04-22T20:44:36.683Z,48.20
2018-04-22T20:47:04.966Z,49.10
2018-04-22T20:49:33.263Z,49.00
2018-04-22T20:52:00.829Z,48.90
2018-04-22T20:54:28.347Z,49.20
2018-04-22T20:56:56.745Z,50.30
2018-04-22T20:59:25.046Z,50.60
2018-04-22T21:01:52.564Z,50.60
2018-04-22T21:04:21.604Z,51.10
2018-04-22T21:06:49.161Z,51.10
2018-04-22T21:09:17.437Z,50.80
2018-04-22T21:11:45.741Z,51.50
2018-04-22T21:14:13.273Z,51.50
2018-04-22T21:16:40.792Z,51.20
2018-04-22T21:19:08.322Z,51.60
2018-04-22T21:21:36.655Z,52.60
2018-04-22T21:24:04.200Z,52.50
2018-04-22T21:26:31.731Z,52.30
2018-04-22T21:28:59.311Z,52.50
2018-04-22T21:31:26.821Z,53.00
2018-04-22T21:33:54.337Z,52.80
2018-04-22T21:36:22.638Z,53.40
2018-04-22T21:38:50.251Z,53.30
2018-04-22T21:41:18.545Z,53.80
2018-04-22T21:43:46.958Z,54.30
2018-04-22T21:46:14.512Z,54.20
2018-04-22T21:48:42.035Z,53.60
2018-04-22T21:51:10.388Z,54.00
2018-04-22T21:53:38.791Z,54.00
2018-04-22T21:58:35.093Z,54.40
2018-04-22T22:01:02.634Z,54.60
2018-04-22T22:03:30.157Z,55.60
2018-04-22T22:05:57.683Z,55.70
2018-04-22T22:08:25.957Z,55.90
2018-04-22T22:10:54.260Z,56.10
2018-04-22T22:13:21.809Z,56.10
2018-04-22T22:15:50.101Z,56.80
2018-04-22T22:18:17.622Z,56.70
2018-04-22T22:20:45.180Z,56.80
2018-04-22T22:23:12.910Z,57.50
2018-04-22T22:25:40.469Z,56.70
2018-04-22T22:28:08.017Z,57.40
2018-04-22T22:30:36.297Z,58.00
2018-04-22T22:33:04.601Z,57.80
2018-04-22T22:35:32.133Z,57.80
2018-04-22T22:38:00.413Z,58.10
2018-04-22T22:40:28.806Z,58.60
2018-04-22T22:42:56.350Z,58.60
2018-04-22T22:45:23.965Z,58.80
2018-04-22T22:47:51.527Z,59.40
2018-04-22T22:50:19.053Z,59.70
2018-04-22T22:52:46.553Z,58.90
2018-04-22T22:55:14.066Z,59.10
2018-04-22T22:57:42.395Z,58.80
2018-04-22T23:00:09.914Z,58.80
2018-04-22T23:02:38.185Z,61.00
2018-04-22T23:07:41.233Z,60.50
2018-04-22T23:10:08.772Z,60.90
2018-04-22T23:12:37.090Z,61.60
2018-04-22T23:15:04.632Z,61.40
2018-04-22T23:17:32.917Z,61.80
2018-04-22T23:20:01.190Z,62.30
2018-04-22T23:22:29.481Z,62.90
2018-04-22T23:24:57.749Z,62.20
2018-04-22T23:27:26.029Z,63.60
2018-04-22T23:29:54.336Z,62.60
2018-04-22T23:32:21.862Z,62.90
2018-04-22T23:34:50.147Z,63.90
2018-04-22T23:37:17.859Z,63.80
2018-04-22T23:39:45.360Z,63.60
2018-04-22T23:42:13.046Z,64.30
2018-04-22T23:44:40.583Z,64.50
2018-04-22T23:47:08.102Z,64.90
2018-04-22T23:49:36.378Z,63.90
2018-04-22T23:52:04.690Z,64.00
2018-04-22T23:54:32.198Z,63.90
2018-04-22T23:57:00.473Z,63.50
2018-04-22T23:59:28.000Z,63.60
